createdAt,value
2024-01-28T00:03:15.952Z,7.91
2024-01-28T00:18:06.337Z,8.08
2024-01-28T00:32:56.956Z,9.40
2024-01-28T00:47:47.362Z,8.68
2024-01-28T01:17:28.604Z,14.66
2024-01-28T01:32:18.780Z,14.06
2024-01-28T01:47:09.705Z,7.73
2024-01-28T02:02:01.436Z,9.89
2024-01-28T02:16:52.925Z,11.40
2024-01-28T02:31:47.368Z,6.07
2024-01-28T02:46:40.712Z,10.61
2024-01-28T03:01:31.231Z,9.10
2024-01-28T03:16:22.783Z,8.74
2024-01-28T03:31:19.789Z,12.49
2024-01-28T04:16:13.430Z,6.59
2024-01-28T04:31:04.156Z,6.41
2024-01-28T05:30:30.672Z,6.59
2024-01-28T06:15:16.847Z,7.30
2024-01-28T06:30:08.541Z,5.09
2024-01-28T06:44:59.488Z,6.88
2024-01-28T06:59:50.166Z,7.80
2024-01-28T07:14:40.647Z,4.30
2024-01-28T07:29:32.369Z,9.62
2024-01-28T07:44:23.688Z,5.34
2024-01-28T07:59:15.611Z,9.50
2024-01-28T08:14:07.312Z,8.22
2024-01-28T08:28:59.858Z,7.76
2024-01-28T08:43:52.164Z,8.97
2024-01-28T08:58:43.475Z,7.27
2024-01-28T09:13:47.069Z,10.09
2024-01-28T09:28:39.609Z,8.48
2024-01-28T09:43:32.145Z,9.46
2024-01-28T09:58:24.752Z,9.32
2024-01-28T10:13:15.590Z,9.43
2024-01-28T10:28:08.311Z,10.94
2024-01-28T10:43:01.703Z,9.60
2024-01-28T10:57:55.445Z,9.20
2024-01-28T11:12:47.169Z,9.63
2024-01-28T11:27:38.900Z,9.58
2024-01-28T11:42:32.417Z,10.59
2024-01-28T12:12:14.869Z,12.42
2024-01-28T12:27:08.019Z,11.56
2024-01-28T12:42:00.919Z,10.96
2024-01-28T12:56:52.016Z,9.47
2024-01-28T13:11:43.764Z,8.06
2024-01-28T13:26:36.573Z,9.32
2024-01-28T13:41:28.980Z,8.87
2024-01-28T13:56:21.129Z,8.57
2024-01-28T14:11:14.089Z,11.13
2024-01-28T14:26:04.579Z,8.78
2024-01-28T14:40:56.139Z,7.22
2024-01-28T14:55:47.998Z,8.80
2024-01-28T15:10:40.310Z,8.08
2024-01-28T15:25:33.191Z,7.06
2024-01-28T16:10:06.446Z,7.09
2024-01-28T16:24:56.054Z,6.80
2024-01-28T16:39:45.822Z,7.32
2024-01-28T16:54:35.381Z,10.02
2024-01-28T17:09:25.205Z,11.51
2024-01-28T17:24:15.502Z,10.18
2024-01-28T17:39:05.747Z,16.23
2024-01-28T17:53:56.626Z,15.19
2024-01-28T18:08:47.522Z,15.11
2024-01-28T18:23:38.412Z,15.21
2024-01-28T18:38:28.728Z,16.52
2024-01-28T18:53:18.780Z,20.38
2024-01-28T19:08:08.860Z,12.69
2024-01-28T19:22:58.915Z,23.74
2024-01-28T19:37:48.382Z,25.62
2024-01-28T19:52:37.919Z,13.53
2024-01-28T20:07:26.775Z,11.09
2024-01-28T20:22:16.795Z,12.28
2024-01-28T20:37:06.956Z,12.14
2024-01-28T20:51:56.954Z,15.80
2024-01-28T21:06:48.311Z,11.37
2024-01-28T21:21:37.561Z,15.22
2024-01-28T21:36:29.676Z,12.28
2024-01-28T21:51:21.315Z,13.60
2024-01-28T22:06:10.564Z,11.47
2024-01-28T22:21:02.253Z,12.47
2024-01-28T23:20:21.400Z,11.44
2024-01-28T23:35:10.855Z,16.07
2024-01-28T23:50:01.130Z,18.81
